Time;durP1;ratioP1;P1;durP2;ratioP2;P2;SDS_P1;SDS_P2;PMS_P1;PMS_P2;Temp;Humidity;BMP_temperature;BMP_pressure;BME280_temperature;BME280_humidity;BME280_pressure;Samples;Min_cycle;Max_cycle;Signal;HPM_P1;HPM_P2
2023/12/16 00:02:04;;;;;;;1.75;1.65;;;18.90;60.40;;;;;;4968958;28;20689;-70
2023/12/16 00:04:30;;;;;;;1.85;1.67;;;19.00;60.60;;;;;;4978729;28;20208;-70
2023/12/16 00:06:55;;;;;;;1.60;1.50;;;18.90;59.70;;;;;;4978660;28;20248;-69
2023/12/16 00:09:21;;;;;;;1.58;1.48;;;18.90;59.70;;;;;;4984773;28;20194;-70
2023/12/16 00:11:47;;;;;;;1.63;1.52;;;19.00;59.80;;;;;;4980890;28;20308;-70
2023/12/16 00:14:13;;;;;;;1.70;1.60;;;18.90;59.80;;;;;;4961474;28;20245;-70
2023/12/16 00:16:45;;;;;;;1.58;1.48;;;18.90;59.70;;;;;;4981872;28;20178;-70
2023/12/16 00:19:11;;;;;;;1.20;1.20;;;18.90;59.80;;;;;;4965508;28;20189;-70
2023/12/16 00:21:37;;;;;;;1.50;1.40;;;19.00;59.80;;;;;;4976916;28;20209;-70
2023/12/16 00:24:09;;;;;;;1.52;1.42;;;19.00;59.80;;;;;;4968986;28;20193;-70
2023/12/16 00:26:35;;;;;;;1.40;1.30;;;18.90;59.70;;;;;;4966250;28;20186;-70
2023/12/16 00:29:00;;;;;;;1.50;1.40;;;18.90;59.70;;;;;;4968450;28;20276;-70
2023/12/16 00:31:26;;;;;;;1.65;1.55;;;18.90;59.70;;;;;;4950166;28;20222;-70
2023/12/16 00:33:52;;;;;;;1.55;1.40;;;18.90;59.70;;;;;;4960090;28;20242;-70
2023/12/16 00:36:17;;;;;;;1.60;1.50;;;18.90;59.70;;;;;;4973655;28;20190;-69
2023/12/16 00:38:43;;;;;;;1.35;1.30;;;18.90;59.70;;;;;;4980775;28;20185;-70
2023/12/16 00:41:10;;;;;;;1.45;1.35;;;18.90;59.70;;;;;;4956434;28;20213;-70
2023/12/16 00:43:35;;;;;;;1.35;1.25;;;18.90;59.70;;;;;;4968628;28;20688;-70
2023/12/16 00:46:01;;;;;;;1.30;1.20;;;18.90;59.70;;;;;;4972056;28;20190;-70
2023/12/16 00:48:27;;;;;;;1.50;1.40;;;18.90;59.70;;;;;;4961976;28;20202;-70
2023/12/16 00:50:52;;;;;;;1.40;1.30;;;19.00;59.80;;;;;;4978364;28;20216;-70
2023/12/16 00:53:18;;;;;;;1.40;1.30;;;18.90;59.70;;;;;;4960505;28;20249;-70
2023/12/16 00:55:44;;;;;;;1.45;1.23;;;19.00;59.80;;;;;;4968399;28;20615;-70
2023/12/16 00:58:10;;;;;;;1.42;1.33;;;18.90;59.70;;;;;;4976069;28;20189;-69
2023/12/16 01:00:36;;;;;;;1.38;1.27;;;18.90;59.70;;;;;;4981278;28;20211;-70
2023/12/16 01:03:01;;;;;;;1.60;1.50;;;19.00;59.80;;;;;;4976076;28;20197;-71
2023/12/16 01:05:27;;;;;;;1.58;1.48;;;18.90;59.70;;;;;;4978467;28;20209;-70
2023/12/16 01:07:53;;;;;;;1.55;1.45;;;19.00;59.80;;;;;;4989790;28;20186;-70
2023/12/16 01:10:18;;;;;;;1.60;1.50;;;18.90;59.70;;;;;;4989791;28;20779;-70
2023/12/16 01:12:45;;;;;;;1.50;1.40;;;18.90;59.70;;;;;;4988452;28;20198;-70
2023/12/16 01:15:11;;;;;;;1.48;1.38;;;18.90;59.70;;;;;;4971111;28;20258;-70
2023/12/16 01:17:37;;;;;;;1.30;1.30;;;18.90;59.70;;;;;;4959634;28;20213;-69
2023/12/16 01:20:03;;;;;;;1.55;1.30;;;18.90;59.70;;;;;;4969063;28;20558;-70
2023/12/16 01:22:29;;;;;;;1.30;1.20;;;18.90;59.70;;;;;;4982154;28;20193;-70
2023/12/16 01:24:55;;;;;;;1.55;1.40;;;18.90;59.70;;;;;;4973423;28;20189;-70
2023/12/16 01:27:21;;;;;;;1.50;1.40;;;18.90;59.70;;;;;;4972517;28;20198;-70
2023/12/16 01:29:47;;;;;;;1.35;1.25;;;18.90;59.70;;;;;;4987733;28;20236;-70
2023/12/16 01:32:12;;;;;;;1.40;1.30;;;18.90;59.70;;;;;;4979361;28;20336;-71
2023/12/16 01:34:38;;;;;;;1.33;1.30;;;18.90;59.70;;;;;;4972911;28;20221;-70
2023/12/16 01:37:04;;;;;;;1.65;1.55;;;18.90;59.70;;;;;;4975303;28;20185;-70
2023/12/16 01:39:29;;;;;;;1.20;1.20;;;18.90;59.70;;;;;;4967927;28;20193;-70
2023/12/16 01:41:55;;;;;;;1.40;1.30;;;18.90;59.70;;;;;;4975174;28;20211;-70
2023/12/16 01:44:21;;;;;;;1.30;1.20;;;18.90;59.70;;;;;;4971626;28;20190;-71
2023/12/16 01:46:47;;;;;;;1.38;1.27;;;18.90;59.70;;;;;;4973469;28;20601;-70
2023/12/16 01:49:13;;;;;;;1.50;1.40;;;18.90;59.70;;;;;;4995186;28;20720;-70
2023/12/16 01:51:38;;;;;;;1.50;1.40;;;18.90;59.70;;;;;;4963112;28;20244;-70
2023/12/16 01:54:07;;;;;;;1.30;1.20;;;18.90;59.80;;;;;;4968508;28;20214;-69
2023/12/16 01:56:34;;;;;;;1.13;1.10;;;18.90;59.70;;;;;;4993356;28;20198;-70
2023/12/16 01:59:00;;;;;;;1.13;1.08;;;18.90;59.70;;;;;;4980003;28;20215;-70
2023/12/16 02:01:26;;;;;;;1.05;1.05;;;18.90;59.70;;;;;;4959331;28;20242;-70
2023/12/16 02:03:54;;;;;;;1.38;1.27;;;18.90;59.70;;;;;;4984418;28;20185;-70
2023/12/16 02:06:20;;;;;;;1.10;1.10;;;19.00;59.80;;;;;;4977105;28;20202;-71
2023/12/16 02:08:47;;;;;;;1.13;1.10;;;18.90;59.80;;;;;;4971920;28;20196;-69
2023/12/16 02:11:12;;;;;;;1.40;1.30;;;18.90;59.70;;;;;;4976813;28;20320;-71
2023/12/16 02:13:40;;;;;;;1.50;1.40;;;18.90;59.70;;;;;;4974240;28;20279;-70
2023/12/16 02:16:07;;;;;;;1.35;1.25;;;18.90;59.70;;;;;;4991039;28;20221;-69
2023/12/16 02:18:32;;;;;;;1.02;1.00;;;18.90;59.70;;;;;;4993162;28;20198;-70
2023/12/16 02:20:58;;;;;;;1.30;1.20;;;18.90;60.40;;;;;;4983317;28;20210;-70
2023/12/16 02:23:24;;;;;;;1.48;1.38;;;19.00;59.80;;;;;;4980826;28;20189;-70
2023/12/16 02:25:49;;;;;;;1.10;1.10;;;18.90;59.70;;;;;;4983049;28;20200;-70
2023/12/16 02:28:15;;;;;;;1.42;1.33;;;18.90;59.70;;;;;;4955812;28;20190;-70
2023/12/16 02:30:41;;;;;;;1.23;1.13;;;18.90;59.70;;;;;;4981693;28;20224;-70
2023/12/16 02:33:07;;;;;;;1.25;1.20;;;18.90;59.70;;;;;;4981965;28;20196;-70
2023/12/16 02:35:33;;;;;;;1.30;1.20;;;18.90;59.70;;;;;;4982733;28;20304;-70
2023/12/16 02:38:00;;;;;;;1.30;1.20;;;18.90;59.70;;;;;;4978809;28;20216;-70
2023/12/16 02:40:25;;;;;;;1.90;1.25;;;18.90;59.70;;;;;;4979270;28;20213;-70
2023/12/16 02:42:51;;;;;;;1.20;1.10;;;18.90;59.70;;;;;;4980125;28;20189;-70
2023/12/16 02:45:17;;;;;;;1.15;1.15;;;19.00;59.80;;;;;;4984394;28;20208;-69
2023/12/16 02:47:43;;;;;;;1.20;1.20;;;18.90;59.70;;;;;;4990748;28;20272;-70
2023/12/16 02:50:09;;;;;;;1.20;1.10;;;18.90;59.70;;;;;;4977908;28;20221;-70
2023/12/16 02:52:35;;;;;;;1.40;1.30;;;18.90;59.70;;;;;;4977923;28;20204;-70
2023/12/16 02:55:00;;;;;;;1.00;1.00;;;18.90;59.70;;;;;;4980933;28;20285;-70
2023/12/16 02:57:26;;;;;;;1.20;1.10;;;18.90;59.70;;;;;;4977534;28;20190;-70
2023/12/16 02:59:52;;;;;;;1.40;1.30;;;18.90;59.70;;;;;;4979192;28;20220;-69
2023/12/16 03:02:18;;;;;;;1.10;1.10;;;18.90;59.70;;;;;;4964556;28;20197;-69
2023/12/16 03:04:44;;;;;;;1.40;1.30;;;18.90;59.70;;;;;;4996775;28;20190;-70
2023/12/16 03:07:10;;;;;;;1.30;1.20;;;18.90;59.70;;;;;;4977451;28;20197;-70
2023/12/16 03:09:36;;;;;;;1.65;1.20;;;18.90;59.70;;;;;;4977636;28;20205;-70
2023/12/16 03:12:04;;;;;;;1.45;1.35;;;18.90;59.70;;;;;;4981623;28;20201;-70
2023/12/16 03:14:29;;;;;;;1.33;1.27;;;18.90;59.70;;;;;;4975856;28;20218;-70
2023/12/16 03:16:57;;;;;;;1.25;1.17;;;18.90;59.70;;;;;;4982153;28;20336;-70
2023/12/16 03:19:22;;;;;;;1.30;1.20;;;18.90;59.70;;;;;;4969974;28;20603;-70
2023/12/16 03:21:48;;;;;;;1.27;1.13;;;18.90;59.70;;;;;;4963798;28;20224;-70
2023/12/16 03:24:14;;;;;;;1.20;1.17;;;18.90;59.70;;;;;;4975373;28;20182;-70
2023/12/16 03:26:40;;;;;;;1.65;1.55;;;18.90;59.70;;;;;;4973939;28;20439;-70
2023/12/16 03:29:05;;;;;;;1.58;1.48;;;18.90;59.70;;;;;;4962373;28;20191;-70
2023/12/16 03:31:31;;;;;;;1.48;1.38;;;18.90;59.70;;;;;;4940310;28;20226;-70
2023/12/16 03:33:57;;;;;;;1.75;1.35;;;18.90;59.70;;;;;;4966259;28;20192;-70
2023/12/16 03:36:22;;;;;;;1.30;1.20;;;19.00;59.80;;;;;;4956853;28;20222;-70
2023/12/16 03:38:48;;;;;;;1.65;1.50;;;18.90;59.70;;;;;;4963706;28;20209;-71
2023/12/16 03:41:14;;;;;;;1.38;1.27;;;18.90;59.70;;;;;;4976426;28;20210;-69
2023/12/16 03:43:40;;;;;;;1.60;1.50;;;19.00;59.80;;;;;;4970462;28;20198;-70
2023/12/16 03:46:07;;;;;;;1.50;1.40;;;19.00;59.80;;;;;;4967712;28;20194;-69
2023/12/16 03:48:33;;;;;;;1.55;1.45;;;18.90;59.70;;;;;;4964391;28;20190;-70
2023/12/16 03:50:59;;;;;;;1.15;1.15;;;18.90;59.70;;;;;;4969914;28;20209;-70
2023/12/16 03:53:25;;;;;;;1.60;1.50;;;19.00;59.80;;;;;;4971022;28;20273;-70
2023/12/16 03:55:50;;;;;;;1.52;1.42;;;18.90;59.70;;;;;;4969629;28;20214;-70
2023/12/16 03:58:16;;;;;;;1.70;1.60;;;18.90;59.70;;;;;;4974338;28;20641;-70
2023/12/16 04:00:42;;;;;;;0.95;0.95;;;18.90;59.70;;;;;;4972893;28;20213;-70
2023/12/16 04:03:08;;;;;;;1.27;1.17;;;18.90;59.70;;;;;;4975775;28;20190;-70
2023/12/16 04:05:34;;;;;;;1.33;1.23;;;18.90;59.70;;;;;;4961874;28;20194;-70
2023/12/16 04:07:59;;;;;;;1.38;1.27;;;19.00;59.80;;;;;;4989970;28;20190;-70
2023/12/16 04:10:25;;;;;;;1.05;1.05;;;18.90;59.70;;;;;;4972978;28;20242;-70
2023/12/16 04:12:51;;;;;;;1.42;1.33;;;18.90;59.70;;;;;;4973098;28;20661;-70
2023/12/16 04:15:16;;;;;;;1.40;1.30;;;19.00;59.80;;;;;;4975854;28;20219;-70
2023/12/16 04:17:42;;;;;;;1.63;1.38;;;18.90;59.70;;;;;;4958873;28;20221;-70
2023/12/16 04:20:08;;;;;;;1.42;1.33;;;18.90;59.70;;;;;;4980893;28;20205;-70
2023/12/16 04:22:34;;;;;;;1.50;1.40;;;18.90;59.70;;;;;;4974145;28;20194;-70
2023/12/16 04:25:00;;;;;;;1.33;1.23;;;18.90;59.70;;;;;;4972129;28;20190;-70
2023/12/16 04:27:27;;;;;;;1.30;1.20;;;18.90;59.70;;;;;;4980708;28;20194;-69
2023/12/16 04:29:53;;;;;;;1.63;1.52;;;18.90;59.70;;;;;;4970962;28;20201;-70
2023/12/16 04:32:19;;;;;;;1.23;1.13;;;18.90;59.70;;;;;;4975308;28;20206;-70
2023/12/16 04:34:45;;;;;;;1.30;1.20;;;18.90;59.70;;;;;;4981801;28;20241;-70
2023/12/16 04:37:10;;;;;;;1.52;1.42;;;18.90;59.70;;;;;;4985459;28;20193;-70
2023/12/16 04:39:37;;;;;;;1.30;1.20;;;18.90;59.70;;;;;;4970543;28;20203;-70
2023/12/16 04:42:03;;;;;;;1.33;1.23;;;18.90;59.70;;;;;;4983670;28;20210;-70
2023/12/16 04:44:29;;;;;;;1.30;1.20;;;18.90;59.70;;;;;;4962832;28;20224;-70
2023/12/16 04:46:55;;;;;;;1.15;1.15;;;18.90;59.70;;;;;;4979628;28;20189;-70
2023/12/16 04:49:21;;;;;;;1.50;1.40;;;18.90;59.70;;;;;;4979748;28;20202;-71
2023/12/16 04:51:47;;;;;;;1.00;1.00;;;18.90;59.70;;;;;;4964724;28;20214;-70
2023/12/16 04:54:12;;;;;;;1.50;1.40;;;18.90;59.70;;;;;;4977901;28;20190;-70
2023/12/16 04:56:38;;;;;;;1.50;1.40;;;18.90;59.70;;;;;;4975901;28;20212;-69
2023/12/16 04:59:04;;;;;;;0.93;0.93;;;18.90;59.70;;;;;;4971966;28;20244;-70
2023/12/16 05:01:30;;;;;;;1.50;1.40;;;18.90;59.70;;;;;;4968119;28;20244;-70
2023/12/16 05:03:56;;;;;;;1.30;1.20;;;18.90;59.70;;;;;;4972329;28;20212;-70
2023/12/16 05:06:21;;;;;;;1.50;1.40;;;18.90;59.70;;;;;;4977682;28;20213;-70
2023/12/16 05:08:47;;;;;;;1.27;1.17;;;18.90;59.70;;;;;;4972226;28;20200;-71
2023/12/16 05:11:13;;;;;;;1.58;1.48;;;18.90;59.70;;;;;;4981859;28;20206;-70
2023/12/16 05:13:38;;;;;;;1.20;1.10;;;18.90;59.70;;;;;;4987306;28;20236;-70
2023/12/16 05:16:05;;;;;;;1.40;1.30;;;18.90;59.70;;;;;;4988018;28;20218;-69
2023/12/16 05:18:30;;;;;;;1.52;1.42;;;18.90;59.70;;;;;;4961479;28;20209;-69
2023/12/16 05:20:56;;;;;;;1.20;1.20;;;18.90;59.70;;;;;;4972961;28;20213;-70
2023/12/16 05:23:22;;;;;;;1.40;1.30;;;18.90;59.70;;;;;;4960680;28;20209;-70
2023/12/16 05:25:48;;;;;;;1.17;1.08;;;18.90;59.70;;;;;;4988893;28;20191;-70
2023/12/16 05:28:13;;;;;;;1.20;1.10;;;18.90;59.70;;;;;;4974151;28;20192;-70
2023/12/16 05:30:39;;;;;;;1.38;1.27;;;18.90;59.70;;;;;;4957856;28;20236;-70
2023/12/16 05:33:05;;;;;;;1.45;1.35;;;18.90;59.80;;;;;;4970538;28;20186;-70
2023/12/16 05:35:31;;;;;;;1.50;1.05;;;18.90;59.70;;;;;;4981084;28;20608;-69
2023/12/16 05:37:57;;;;;;;1.10;1.10;;;18.90;59.70;;;;;;4977443;28;20189;-70
2023/12/16 05:40:23;;;;;;;1.48;1.38;;;18.90;59.70;;;;;;4978497;28;20214;-71
2023/12/16 05:42:49;;;;;;;1.13;1.10;;;18.90;59.70;;;;;;4969243;28;20181;-70
2023/12/16 05:45:14;;;;;;;1.05;1.05;;;18.90;59.70;;;;;;4971448;28;20252;-70
2023/12/16 05:47:40;;;;;;;1.00;1.00;;;18.90;59.70;;;;;;4985229;28;20240;-70
2023/12/16 05:50:10;;;;;;;1.23;1.13;;;18.90;59.70;;;;;;4974214;28;20198;-71
2023/12/16 05:52:38;;;;;;;1.30;1.20;;;18.90;59.70;;;;;;4984288;28;20189;-70
2023/12/16 05:55:05;;;;;;;1.20;1.10;;;18.90;59.70;;;;;;4982380;28;20268;-71
2023/12/16 05:57:31;;;;;;;1.40;1.30;;;18.90;59.70;;;;;;4975556;28;20190;-70
2023/12/16 05:59:56;;;;;;;1.00;1.00;;;18.90;59.70;;;;;;4968810;28;20212;-70
2023/12/16 06:02:22;;;;;;;1.50;1.40;;;18.90;59.70;;;;;;4974915;28;20679;-70
2023/12/16 06:04:49;;;;;;;1.40;1.30;;;18.90;60.40;;;;;;4972849;28;20215;-70
2023/12/16 06:07:14;;;;;;;2.20;2.00;;;18.90;59.70;;;;;;4961180;28;20194;-70
2023/12/16 06:09:40;;;;;;;2.55;2.35;;;18.90;59.70;;;;;;4966834;28;20208;-70
2023/12/16 06:12:06;;;;;;;2.78;2.58;;;18.90;59.70;;;;;;4980572;28;20225;-69
2023/12/16 06:14:32;;;;;;;3.20;2.90;;;18.90;59.70;;;;;;4982266;28;20209;-70
2023/12/16 06:16:58;;;;;;;3.60;3.30;;;18.90;59.70;;;;;;4986470;28;20285;-70
2023/12/16 06:19:23;;;;;;;3.60;3.10;;;18.90;59.70;;;;;;4967626;28;20198;-69
2023/12/16 06:21:49;;;;;;;3.53;3.22;;;18.90;59.70;;;;;;4971134;28;20213;-71
2023/12/16 06:24:15;;;;;;;3.42;3.13;;;18.90;59.70;;;;;;4957411;28;20188;-69
2023/12/16 06:26:40;;;;;;;3.40;3.10;;;18.90;59.70;;;;;;4973197;28;20198;-70
2023/12/16 06:29:07;;;;;;;3.55;3.10;;;18.90;59.70;;;;;;4973153;28;20190;-69
2023/12/16 06:31:33;;;;;;;3.25;2.95;;;18.90;59.70;;;;;;4968910;28;20223;-69
2023/12/16 06:33:59;;;;;;;3.65;3.30;;;18.90;59.70;;;;;;4974300;28;20186;-70
2023/12/16 06:36:25;;;;;;;3.15;2.92;;;18.90;59.70;;;;;;4947704;29;20713;-70
2023/12/16 06:38:51;;;;;;;2.92;2.70;;;18.90;59.70;;;;;;4971230;28;20181;-70
2023/12/16 06:41:16;;;;;;;3.15;2.88;;;18.90;59.70;;;;;;4972440;28;20214;-71
2023/12/16 06:43:42;;;;;;;3.30;3.00;;;18.90;59.70;;;;;;4970235;28;20257;-69
2023/12/16 06:46:08;;;;;;;2.78;2.58;;;18.90;59.70;;;;;;4960663;28;20197;-70
2023/12/16 06:48:35;;;;;;;2.97;2.75;;;18.90;59.70;;;;;;4954908;28;20199;-69
2023/12/16 06:51:02;;;;;;;2.83;2.63;;;18.90;59.70;;;;;;4988792;28;20226;-69
2023/12/16 06:53:27;;;;;;;3.25;2.95;;;18.90;59.70;;;;;;4986513;28;20197;-71
2023/12/16 06:55:53;;;;;;;2.63;2.42;;;18.90;59.70;;;;;;4978975;28;20212;-70
2023/12/16 06:58:20;;;;;;;2.65;2.45;;;18.90;59.70;;;;;;4985024;28;20181;-70
2023/12/16 07:00:46;;;;;;;2.45;2.30;;;18.90;59.70;;;;;;4974078;28;20252;-70
2023/12/16 07:03:12;;;;;;;2.67;2.47;;;18.90;59.70;;;;;;4953358;28;20214;-71
2023/12/16 07:05:38;;;;;;;2.67;2.47;;;18.90;59.70;;;;;;4987106;28;20259;-67
2023/12/16 07:08:04;;;;;;;2.67;2.47;;;18.90;59.70;;;;;;4974426;28;20571;-70
2023/12/16 07:10:29;;;;;;;2.72;2.53;;;18.90;60.40;;;;;;4975169;28;20221;-70
2023/12/16 07:12:55;;;;;;;2.80;2.55;;;18.90;59.70;;;;;;4965327;28;20189;-70
2023/12/16 07:15:21;;;;;;;2.80;2.60;;;18.90;59.70;;;;;;4959658;28;20229;-70
2023/12/16 07:17:47;;;;;;;3.45;2.70;;;18.90;59.70;;;;;;4987596;28;20199;-70
2023/12/16 07:20:13;;;;;;;2.85;2.65;;;18.90;59.70;;;;;;4951315;28;20672;-70
2023/12/16 07:22:39;;;;;;;2.85;2.65;;;18.90;60.40;;;;;;4972140;28;20194;-69
2023/12/16 07:25:06;;;;;;;2.67;2.47;;;18.90;59.70;;;;;;4990809;28;20211;-70
2023/12/16 07:27:31;;;;;;;2.90;2.63;;;18.90;59.70;;;;;;4970954;28;20320;-70
2023/12/16 07:29:57;;;;;;;2.72;2.53;;;18.90;59.70;;;;;;4988517;28;20267;-70
2023/12/16 07:32:23;;;;;;;2.88;2.67;;;18.90;59.70;;;;;;4957898;28;20204;-70
2023/12/16 07:34:50;;;;;;;2.92;2.67;;;18.90;59.70;;;;;;4960227;28;20229;-70
2023/12/16 07:37:18;;;;;;;2.50;2.30;;;18.90;59.60;;;;;;4973701;28;20224;-70
2023/12/16 07:39:44;;;;;;;3.42;2.47;;;18.90;59.70;;;;;;4971892;28;20224;-71
2023/12/16 07:42:11;;;;;;;2.80;2.60;;;18.90;59.70;;;;;;4976461;28;20209;-69
2023/12/16 07:44:37;;;;;;;2.80;2.60;;;18.90;59.70;;;;;;4974312;28;20190;-70
2023/12/16 07:47:03;;;;;;;2.47;2.28;;;18.90;59.60;;;;;;4991619;28;20193;-70
2023/12/16 07:49:28;;;;;;;2.00;1.90;;;18.90;59.50;;;;;;4958241;28;20240;-70
2023/12/16 07:51:57;;;;;;;2.60;2.40;;;18.90;59.60;;;;;;4973198;28;20217;-70
2023/12/16 07:54:27;;;;;;;2.40;2.20;;;18.90;59.50;;;;;;4990129;28;20190;-70
2023/12/16 07:56:53;;;;;;;2.80;2.40;;;18.90;59.50;;;;;;4974930;28;20186;-70
2023/12/16 07:59:19;;;;;;;2.50;2.30;;;18.90;59.60;;;;;;4976281;28;20664;-70
2023/12/16 08:01:50;;;;;;;3.25;2.95;;;18.90;59.60;;;;;;4967887;28;20213;-69
2023/12/16 08:04:15;;;;;;;2.63;2.40;;;18.90;59.50;;;;;;4961102;28;20201;-70
2023/12/16 08:06:41;;;;;;;2.55;2.35;;;18.90;59.60;;;;;;4960948;28;20186;-70
2023/12/16 08:09:07;;;;;;;2.83;2.53;;;18.90;59.60;;;;;;4974225;28;20253;-70
2023/12/16 08:11:33;;;;;;;3.55;2.80;;;18.90;59.60;;;;;;4964895;28;20804;-70
2023/12/16 08:13:59;;;;;;;2.65;2.45;;;18.90;59.70;;;;;;4973658;28;20186;-70
2023/12/16 08:16:25;;;;;;;3.33;3.03;;;18.90;59.50;;;;;;4981307;28;20287;-70
2023/12/16 08:18:51;;;;;;;2.88;2.67;;;18.90;59.60;;;;;;4974855;28;20192;-70
2023/12/16 08:21:18;;;;;;;3.05;2.67;;;18.90;59.70;;;;;;4953495;28;20222;-70
2023/12/16 08:23:45;;;;;;;2.80;2.60;;;18.90;59.70;;;;;;4982136;28;20200;-70
2023/12/16 08:26:10;;;;;;;3.45;2.72;;;18.90;59.60;;;;;;4945197;28;20186;-70
2023/12/16 08:28:37;;;;;;;3.65;2.92;;;18.90;59.50;;;;;;4954164;28;20696;-70
2023/12/16 08:31:03;;;;;;;3.50;2.80;;;18.90;59.50;;;;;;4987271;28;20225;-71
2023/12/16 08:33:29;;;;;;;3.00;2.60;;;19.00;59.60;;;;;;4985824;28;20249;-70
2023/12/16 08:35:56;;;;;;;3.00;2.70;;;19.00;59.60;;;;;;4988182;28;20213;-70
2023/12/16 08:38:22;;;;;;;4.25;2.85;;;18.90;59.50;;;;;;4979979;28;20276;-70
2023/12/16 08:40:48;;;;;;;2.88;2.67;;;19.00;59.60;;;;;;4972747;28;20268;-70
2023/12/16 08:43:14;;;;;;;2.83;2.40;;;18.90;59.50;;;;;;4973329;28;20193;-70
2023/12/16 08:45:40;;;;;;;3.83;2.70;;;18.90;59.40;;;;;;4987924;28;20194;-70
2023/12/16 08:48:05;;;;;;;2.70;2.50;;;19.00;59.60;;;;;;4965216;28;20241;-70
2023/12/16 08:50:32;;;;;;;2.83;2.63;;;19.00;59.60;;;;;;4980894;28;20217;-69
2023/12/16 08:52:57;;;;;;;3.30;2.63;;;19.00;59.70;;;;;;4956624;28;20197;-70
2023/12/16 08:55:24;;;;;;;2.60;2.40;;;19.00;59.60;;;;;;4971533;28;20209;-70
2023/12/16 08:57:50;;;;;;;2.60;2.40;;;19.00;59.60;;;;;;4983570;28;20214;-69
2023/12/16 09:00:17;;;;;;;2.47;2.28;;;19.00;59.60;;;;;;4963330;28;20205;-70
2023/12/16 09:02:43;;;;;;;3.03;2.17;;;19.00;59.70;;;;;;4981343;28;20186;-70
2023/12/16 09:05:09;;;;;;;2.70;2.50;;;19.00;59.70;;;;;;4957223;28;20193;-70
2023/12/16 09:07:35;;;;;;;2.58;2.38;;;19.00;59.70;;;;;;4971385;28;20292;-70
2023/12/16 09:10:01;;;;;;;2.95;2.58;;;19.00;59.90;;;;;;4948368;28;20288;-70
2023/12/16 09:12:27;;;;;;;3.53;2.53;;;19.10;59.80;;;;;;4979945;28;20277;-70
2023/12/16 09:14:52;;;;;;;2.33;2.13;;;19.00;59.80;;;;;;4963550;28;20285;-70
2023/12/16 09:17:18;;;;;;;2.63;2.40;;;19.10;59.80;;;;;;4971739;28;20190;-70
2023/12/16 09:19:44;;;;;;;2.50;2.30;;;19.10;59.80;;;;;;4957119;28;20205;-71
2023/12/16 09:22:09;;;;;;;2.30;2.10;;;19.10;59.80;;;;;;4956433;28;20205;-70
2023/12/16 09:24:35;;;;;;;2.63;2.42;;;19.10;59.80;;;;;;4956147;28;20197;-71
2023/12/16 09:27:01;;;;;;;2.35;2.15;;;19.10;59.90;;;;;;4956361;28;20189;-69
2023/12/16 09:29:27;;;;;;;4.28;2.05;;;19.10;59.90;;;;;;4980048;28;20198;-70
2023/12/16 09:31:52;;;;;;;3.58;2.05;;;19.10;59.90;;;;;;4940240;28;20222;-71
2023/12/16 09:34:19;;;;;;;2.40;2.20;;;19.10;59.90;;;;;;4955835;28;20233;-71
2023/12/16 09:36:45;;;;;;;2.30;2.10;;;19.10;60.70;;;;;;4955720;28;20276;-71
2023/12/16 09:39:11;;;;;;;3.53;2.38;;;19.10;59.90;;;;;;4979530;28;20196;-71
2023/12/16 09:41:44;;;;;;;2.42;1.83;;;19.10;59.90;;;;;;4958456;28;20205;-70
2023/12/16 09:44:19;;;;;;;1.77;1.67;;;19.10;59.90;;;;;;4976682;28;20192;-71
2023/12/16 09:46:45;;;;;;;2.28;1.95;;;19.10;59.90;;;;;;4960929;28;20193;-71
2023/12/16 09:49:13;;;;;;;2.35;2.05;;;19.10;59.90;;;;;;4970085;28;20190;-71
2023/12/16 09:51:44;;;;;;;2.67;1.80;;;19.10;59.90;;;;;;4983287;28;20213;-70
2023/12/16 09:54:10;;;;;;;2.28;2.08;;;19.10;59.90;;;;;;4987930;28;20190;-69
2023/12/16 09:56:39;;;;;;;3.22;1.98;;;19.10;60.00;;;;;;4987783;28;20252;-69
2023/12/16 09:59:07;;;;;;;2.25;2.05;;;19.10;59.90;;;;;;4964581;28;20189;-69
2023/12/16 10:01:33;;;;;;;3.13;1.92;;;19.10;59.90;;;;;;4986001;28;20217;-70
2023/12/16 10:04:00;;;;;;;1.85;1.67;;;19.10;59.90;;;;;;4971959;28;20200;-69
2023/12/16 10:06:26;;;;;;;1.80;1.70;;;19.10;59.90;;;;;;4979847;28;20202;-70
2023/12/16 10:08:52;;;;;;;1.67;1.58;;;19.10;59.90;;;;;;4979330;28;20201;-70
2023/12/16 10:11:18;;;;;;;2.70;1.67;;;19.10;59.90;;;;;;4976130;28;20219;-70
2023/12/16 10:13:59;;;;;;;1.67;1.58;;;19.00;59.80;;;;;;4974282;28;20192;-71
2023/12/16 10:16:26;;;;;;;1.80;1.70;;;19.10;59.90;;;;;;4974246;28;20305;-70
2023/12/16 10:18:53;;;;;;;2.30;1.75;;;19.00;59.80;;;;;;4978564;28;20353;-70
2023/12/16 10:21:30;;;;;;;2.10;1.90;;;19.00;59.80;;;;;;4986316;28;20213;-70
2023/12/16 10:24:01;;;;;;;1.50;1.40;;;19.10;59.90;;;;;;4975985;28;20268;-69
2023/12/16 10:26:33;;;;;;;1.45;1.35;;;19.10;59.90;;;;;;4975188;28;20201;-69
2023/12/16 10:29:04;;;;;;;1.70;1.55;;;19.10;59.90;;;;;;4983569;28;20190;-70
2023/12/16 10:31:30;;;;;;;1.90;1.70;;;19.10;59.90;;;;;;4988594;28;20231;-69
2023/12/16 10:34:03;;;;;;;1.40;1.30;;;19.00;59.80;;;;;;4977296;28;20197;-70
2023/12/16 10:36:30;;;;;;;2.42;1.75;;;19.10;59.70;;;;;;4966970;28;20301;-70
2023/12/16 10:38:57;;;;;;;1.60;1.50;;;19.10;59.60;;;;;;4983325;28;20207;-70
2023/12/16 10:41:23;;;;;;;1.70;1.60;;;19.00;59.50;;;;;;4978126;28;20213;-70
2023/12/16 10:43:49;;;;;;;1.60;1.50;;;19.00;59.40;;;;;;4977670;28;20196;-70
2023/12/16 10:46:17;;;;;;;1.55;1.45;;;19.00;59.40;;;;;;4974836;28;20185;-70
2023/12/16 10:48:50;;;;;;;1.58;1.48;;;19.00;59.40;;;;;;4974931;28;20225;-70
2023/12/16 10:51:18;;;;;;;1.50;1.40;;;19.00;59.30;;;;;;4973170;28;20210;-69
2023/12/16 10:54:05;;;;;;;1.83;1.50;;;19.00;59.30;;;;;;4980644;28;20187;-70
2023/12/16 10:56:42;;;;;;;2.65;1.30;;;19.00;59.30;;;;;;4963345;28;20284;-70
2023/12/16 10:59:24;;;;;;;1.60;1.50;;;19.00;59.20;;;;;;4974911;28;20192;-70
2023/12/16 11:01:57;;;;;;;1.60;1.50;;;19.00;59.10;;;;;;4981523;28;20735;-69
2023/12/16 11:04:34;;;;;;;1.65;1.55;;;19.00;59.10;;;;;;4981784;28;20216;-70
2023/12/16 11:07:09;;;;;;;1.52;1.42;;;19.00;59.10;;;;;;4987749;28;20212;-70
2023/12/16 11:09:35;;;;;;;1.83;1.60;;;19.00;59.10;;;;;;4976062;28;20254;-70
2023/12/16 11:12:02;;;;;;;1.45;1.35;;;19.00;59.00;;;;;;4989501;28;20213;-70
2023/12/16 11:14:33;;;;;;;1.83;1.63;;;19.00;59.00;;;;;;4984603;28;20197;-70
2023/12/16 11:17:10;;;;;;;1.25;1.17;;;19.00;58.90;;;;;;4981427;28;20194;-70
2023/12/16 11:19:44;;;;;;;1.50;1.40;;;19.00;58.90;;;;;;4989650;28;20193;-70
2023/12/16 11:22:15;;;;;;;1.48;1.30;;;19.00;58.80;;;;;;4970800;28;20677;-69
2023/12/16 11:24:41;;;;;;;0.90;0.90;;;19.00;58.90;;;;;;4974364;28;20190;-70
2023/12/16 11:27:07;;;;;;;1.30;1.20;;;19.00;58.90;;;;;;4970866;28;20197;-69
2023/12/16 11:29:34;;;;;;;1.17;1.10;;;19.00;58.80;;;;;;4957073;28;20208;-70
2023/12/16 11:32:01;;;;;;;2.33;1.40;;;19.00;58.80;;;;;;4960601;28;20242;-70
2023/12/16 11:34:43;;;;;;;1.00;1.00;;;19.00;58.80;;;;;;4980938;28;20200;-70
2023/12/16 11:37:11;;;;;;;1.10;1.00;;;18.90;58.70;;;;;;5002392;28;20193;-71
2023/12/16 11:39:48;;;;;;;1.27;1.17;;;18.90;58.70;;;;;;4977748;28;20188;-69
2023/12/16 11:42:49;;;;;;;1.65;1.17;;;19.00;58.80;;;;;;4991219;28;20235;-70
2023/12/16 11:45:45;;;;;;;1.20;1.10;;;19.00;58.80;;;;;;4991664;28;20192;-70
2023/12/16 11:48:16;;;;;;;1.08;1.00;;;19.00;58.60;;;;;;4980476;28;20610;-70
2023/12/16 11:50:45;;;;;;;1.05;1.00;;;19.00;58.60;;;;;;4983060;28;20217;-71
2023/12/16 11:53:14;;;;;;;1.08;1.08;;;19.00;58.60;;;;;;4980264;28;20189;-70
2023/12/16 11:55:41;;;;;;;1.63;1.00;;;19.00;59.20;;;;;;4972953;28;20231;-71
2023/12/16 11:58:07;;;;;;;1.20;1.10;;;19.00;58.60;;;;;;4989842;28;20240;-71
2023/12/16 12:00:33;;;;;;;1.15;1.10;;;19.00;58.60;;;;;;4986719;28;20209;-71
2023/12/16 12:03:00;;;;;;;1.35;1.25;;;19.00;58.60;;;;;;4991546;28;20194;-70
2023/12/16 12:05:27;;;;;;;0.82;0.82;;;19.00;58.60;;;;;;4986157;28;20579;-70
2023/12/16 12:07:53;;;;;;;1.55;1.10;;;19.00;58.60;;;;;;4988274;28;20197;-70
2023/12/16 12:10:19;;;;;;;1.30;1.20;;;19.00;58.70;;;;;;4977435;28;20223;-71
2023/12/16 12:12:44;;;;;;;1.00;0.98;;;19.00;58.70;;;;;;4977077;28;20193;-70
2023/12/16 12:15:11;;;;;;;1.08;0.98;;;19.00;58.70;;;;;;4954864;28;20256;-70
2023/12/16 12:17:38;;;;;;;0.95;0.88;;;19.00;58.60;;;;;;4969206;28;20190;-70
2023/12/16 12:20:10;;;;;;;1.67;1.00;;;19.00;58.60;;;;;;4979853;28;20717;-70
2023/12/16 12:22:36;;;;;;;1.20;1.10;;;19.00;58.60;;;;;;4961646;28;20199;-70
2023/12/16 12:25:02;;;;;;;1.05;1.00;;;19.00;58.60;;;;;;4958474;28;20201;-69
2023/12/16 12:27:29;;;;;;;0.90;0.88;;;19.00;58.60;;;;;;4977924;28;20184;-70
2023/12/16 12:29:59;;;;;;;0.75;0.75;;;19.00;58.70;;;;;;4958329;28;20203;-70
2023/12/16 12:32:30;;;;;;;1.45;0.90;;;19.00;58.60;;;;;;4960286;28;20348;-70
2023/12/16 12:35:04;;;;;;;0.85;0.85;;;19.00;58.60;;;;;;4985669;28;20221;-70
2023/12/16 12:37:44;;;;;;;1.30;0.90;;;19.00;58.60;;;;;;4972814;28;20716;-69
2023/12/16 12:40:13;;;;;;;0.77;0.77;;;19.00;58.60;;;;;;4962231;28;20218;-69
2023/12/16 12:42:44;;;;;;;0.70;0.70;;;19.00;58.70;;;;;;4971720;28;20193;-70
2023/12/16 12:45:22;;;;;;;1.17;1.08;;;19.00;58.60;;;;;;4970729;28;20194;-70
2023/12/16 12:47:48;;;;;;;0.77;0.77;;;19.00;58.70;;;;;;4973392;28;20672;-69